Terminal Aerodrome Forecast
Issued by NWS Missoula, MT

Home | Current Version | Previous Version | Text Only | Print | Product List | Glossary On
Versions: 1 2 3 4 5 6 7 8 9 10 11 12 13 14 15 16 17 18 19
000
FTUS45 KMSO 281120
TAFGPI
TAF
KGPI 281120Z 2812/2912 17006KT P6SM VCSH OVC040
     FM282200 18009KT 6SM -RA BR OVC050
     FM290100 19012G22KT 6SM -RA OVC050
     FM290600 04015G25KT 4SM -SN OVC025=

USA.gov is the U.S. government's official web portal to all federal, state and local government web resources and services.